createdAt,value
2023-09-17T00:01:11.805Z,99562.50
2023-09-17T00:03:13.332Z,99573.00
2023-09-17T00:05:14.982Z,99565.53
2023-09-17T00:07:16.495Z,99570.88
2023-09-17T00:09:18.976Z,99565.00
2023-09-17T00:11:21.693Z,99567.97
2023-09-17T00:13:23.447Z,99562.94
2023-09-17T00:15:28.567Z,99561.84
2023-09-17T00:17:30.104Z,99565.63
2023-09-17T00:19:33.653Z,99563.22
2023-09-17T00:21:35.121Z,99567.03
2023-09-17T00:23:36.571Z,99566.47
2023-09-17T00:25:38.366Z,99556.88
2023-09-17T00:27:42.633Z,99552.84
2023-09-17T00:29:44.135Z,99564.44
2023-09-17T00:31:45.653Z,99561.53
2023-09-17T00:33:47.191Z,99562.63
2023-09-17T00:35:49.395Z,99562.94
2023-09-17T00:37:52.499Z,99564.28
2023-09-17T00:39:54.105Z,99562.13
2023-09-17T00:41:55.605Z,99555.47
2023-09-17T00:43:57.109Z,99558.44
2023-09-17T00:45:58.682Z,99553.09
2023-09-17T00:48:01.784Z,99548.59
2023-09-17T00:50:04.047Z,99545.09
2023-09-17T00:52:16.563Z,99546.44
2023-09-17T00:54:18.479Z,99548.38
2023-09-17T00:56:20.989Z,99546.22
2023-09-17T00:58:23.675Z,99539.28
2023-09-17T01:00:26.008Z,99533.69
2023-09-17T01:02:33.274Z,99540.63
2023-09-17T01:04:35.721Z,99543.84
2023-09-17T01:06:39.367Z,99535.50
2023-09-17T01:13:43.424Z,99521.59
2023-09-17T01:15:44.884Z,99530.44
2023-09-17T01:17:46.346Z,99528.81
2023-09-17T01:19:47.937Z,99521.09
2023-09-17T01:22:04.492Z,99517.53
2023-09-17T01:24:22.370Z,99521.25
2023-09-17T01:26:27.542Z,99519.13
2023-09-17T01:28:30.142Z,99524.75
2023-09-17T01:30:31.706Z,99515.63
2023-09-17T01:32:33.131Z,99515.63
2023-09-17T01:34:38.834Z,99516.47
2023-09-17T01:36:41.833Z,99520.22
2023-09-17T01:38:51.095Z,99517.53
2023-09-17T01:40:55.037Z,99521.31
2023-09-17T01:42:57.474Z,99521.03
2023-09-17T01:45:00.534Z,99516.47
2023-09-17T01:47:04.328Z,99519.38
2023-09-17T01:49:08.009Z,99511.63
2023-09-17T01:51:12.540Z,99514.28
2023-09-17T01:53:14.162Z,99512.16
2023-09-17T01:55:15.689Z,99505.97
2023-09-17T01:57:17.153Z,99505.75
2023-09-17T01:59:18.686Z,99504.69
2023-09-17T02:01:20.450Z,99508.16
2023-09-17T02:03:22.114Z,99506.25
2023-09-17T02:05:26.102Z,99505.47
2023-09-17T02:07:27.555Z,99505.19
2023-09-17T02:09:29.038Z,99503.56
2023-09-17T02:11:30.454Z,99500.91
2023-09-17T02:13:32.164Z,99504.91
2023-09-17T02:15:36.601Z,99504.38
2023-09-17T02:17:38.277Z,99508.66
2023-09-17T02:19:40.200Z,99531.19
2023-09-17T02:21:41.792Z,99530.38
2023-09-17T02:23:43.939Z,99532.03
2023-09-17T02:25:46.859Z,99535.72
2023-09-17T02:30:13.665Z,99544.56
2023-09-17T02:32:15.094Z,99538.19
2023-09-17T02:34:16.577Z,99531.50
2023-09-17T02:36:18.040Z,99535.00
2023-09-17T02:38:19.476Z,99529.63
2023-09-17T02:40:21.747Z,99533.38
2023-09-17T02:42:24.692Z,99522.63
2023-09-17T02:44:26.684Z,99513.53
2023-09-17T02:46:28.194Z,99512.94
2023-09-17T02:48:29.714Z,99519.97
2023-09-17T02:50:31.138Z,99520.81
2023-09-17T02:52:32.753Z,99513.13
2023-09-17T02:54:35.235Z,99515.22
2023-09-17T02:56:36.720Z,99513.09
2023-09-17T02:58:39.347Z,99504.25
2023-09-17T03:00:42.422Z,99500.50
2023-09-17T03:02:48.456Z,99496.81
2023-09-17T03:04:54.055Z,99500.03
2023-09-17T03:06:55.579Z,99492.25
2023-09-17T03:08:57.361Z,99487.47
2023-09-17T03:10:59.879Z,99490.94
2023-09-17T03:13:01.307Z,99485.03
2023-09-17T03:15:02.891Z,99482.84
2023-09-17T03:17:06.603Z,99487.13
2023-09-17T03:19:08.252Z,99492.25
2023-09-17T03:21:10.581Z,99488.50
2023-09-17T03:23:12.546Z,99486.19
2023-09-17T03:25:14.177Z,99487.72
2023-09-17T03:27:15.732Z,99484.50
2023-09-17T03:29:17.176Z,99498.16
2023-09-17T03:31:18.731Z,99501.59
2023-09-17T03:33:20.366Z,99525.19
2023-09-17T03:35:21.834Z,99522.53
2023-09-17T03:37:23.485Z,99526.81
2023-09-17T03:39:25.218Z,99523.84
2023-09-17T03:41:26.784Z,99513.41
2023-09-17T03:43:31.085Z,99502.41
2023-09-17T03:45:32.659Z,99499.78
2023-09-17T03:47:34.258Z,99489.06
2023-09-17T03:49:36.432Z,99474.34
2023-09-17T03:51:38.005Z,99478.63
2023-09-17T03:53:39.604Z,99480.22
2023-09-17T03:55:41.499Z,99485.59
2023-09-17T03:57:43.976Z,99486.66
2023-09-17T03:59:45.650Z,99487.72
2023-09-17T04:01:47.375Z,99489.09
2023-09-17T04:03:50.068Z,99490.72
2023-09-17T04:05:52.021Z,99486.72
2023-09-17T04:07:54.109Z,99488.06
2023-09-17T04:09:55.557Z,99491.03
2023-09-17T04:12:03.777Z,99493.41
2023-09-17T04:14:07.906Z,99486.22
2023-09-17T04:16:09.938Z,99481.66
2023-09-17T04:18:11.645Z,99476.06
2023-09-17T04:20:19.946Z,99479.03
2023-09-17T04:22:21.939Z,99479.84
2023-09-17T04:24:23.376Z,99483.88
2023-09-17T04:26:25.431Z,99487.09
2023-09-17T04:28:26.947Z,99484.44
2023-09-17T04:30:28.480Z,99487.41
2023-09-17T04:32:31.044Z,99474.00
2023-09-17T04:34:32.621Z,99475.88
2023-09-17T04:36:34.056Z,99474.25
2023-09-17T04:38:35.466Z,99483.13
2023-09-17T04:40:37.043Z,99478.81
2023-09-17T04:42:39.874Z,99477.19
2023-09-17T04:44:41.331Z,99482.84
2023-09-17T04:46:44.267Z,99483.13
2023-09-17T04:48:45.758Z,99487.66
2023-09-17T04:50:48.531Z,99481.53
2023-09-17T04:52:50.050Z,99491.97
2023-09-17T04:54:51.616Z,99485.84
2023-09-17T04:56:53.076Z,99488.28
2023-09-17T04:58:54.547Z,99484.81
2023-09-17T05:00:56.081Z,99487.19
2023-09-17T05:02:57.735Z,99485.59
2023-09-17T05:04:59.265Z,99488.53
2023-09-17T05:07:00.817Z,99489.63
2023-09-17T05:09:02.242Z,99482.69
2023-09-17T05:11:04.333Z,99486.19
2023-09-17T05:13:06.936Z,99485.91
2023-09-17T05:15:08.706Z,99489.13
2023-09-17T05:17:10.180Z,99486.44
2023-09-17T05:19:11.635Z,99484.31
2023-09-17T05:21:13.128Z,99480.28
2023-09-17T05:23:14.738Z,99480.78
2023-09-17T05:25:17.066Z,99482.13
2023-09-17T05:27:18.718Z,99483.19
2023-09-17T05:29:20.302Z,99485.59
2023-09-17T05:31:21.916Z,99480.75
2023-09-17T05:33:24.530Z,99488.78
2023-09-17T05:35:25.972Z,99489.28
2023-09-17T05:37:28.527Z,99487.72
2023-09-17T05:39:30.025Z,99485.03
2023-09-17T05:41:31.487Z,99489.03
2023-09-17T05:43:32.954Z,99489.56
2023-09-17T05:45:34.558Z,99488.47
2023-09-17T05:47:36.258Z,99478.06
2023-09-17T05:49:37.821Z,99480.44
2023-09-17T05:51:39.808Z,99486.34
2023-09-17T05:53:41.292Z,99480.69
2023-09-17T05:55:43.775Z,99478.56
2023-09-17T05:57:45.312Z,99487.41
2023-09-17T05:59:46.780Z,99488.19
2023-09-17T06:01:48.394Z,99485.75
2023-09-17T06:03:50.328Z,99486.28
2023-09-17T06:05:53.975Z,99485.19
2023-09-17T06:07:56.139Z,99485.94
2023-09-17T06:09:57.705Z,99484.56
2023-09-17T06:11:59.190Z,99489.41
2023-09-17T06:14:00.695Z,99482.38
2023-09-17T06:16:02.307Z,99479.16
2023-09-17T06:18:04.058Z,99480.97
2023-09-17T06:20:06.372Z,99480.13
2023-09-17T06:22:08.335Z,99481.16
2023-09-17T06:24:14.696Z,99480.91
2023-09-17T06:26:16.182Z,99476.53
2023-09-17T06:28:18.136Z,99475.19
2023-09-17T06:30:21.175Z,99482.09
2023-09-17T06:32:23.119Z,99483.94
2023-09-17T06:34:24.718Z,99477.72
2023-09-17T06:36:28.343Z,99477.97
2023-09-17T06:38:30.934Z,99484.31
2023-09-17T06:40:32.450Z,99482.69
2023-09-17T06:42:33.914Z,99486.63
2023-09-17T06:44:35.370Z,99489.03
2023-09-17T06:46:37.672Z,99484.97
2023-09-17T06:48:39.277Z,99480.31
2023-09-17T06:50:40.707Z,99467.94
2023-09-17T06:52:42.226Z,99472.94
2023-09-17T06:54:44.671Z,99472.31
2023-09-17T06:56:46.093Z,99473.25
2023-09-17T06:58:47.533Z,99475.88
2023-09-17T07:00:49.682Z,99474.44
2023-09-17T07:02:51.154Z,99476.75
2023-09-17T07:04:52.806Z,99481.50
2023-09-17T07:06:55.707Z,99473.06
2023-09-17T07:08:58.327Z,99482.56
2023-09-17T07:11:00.088Z,99477.88
2023-09-17T07:13:01.576Z,99478.81
2023-09-17T07:15:04.112Z,99479.16
2023-09-17T07:17:05.752Z,99478.50
2023-09-17T07:19:07.307Z,99480.00
2023-09-17T07:21:08.736Z,99471.78
2023-09-17T07:23:10.258Z,99468.41
2023-09-17T07:25:11.744Z,99478.19
2023-09-17T07:27:15.040Z,99476.72
2023-09-17T07:29:16.524Z,99479.69
2023-09-17T07:31:18.125Z,99478.88
2023-09-17T07:33:19.636Z,99474.72
2023-09-17T07:35:21.176Z,99473.31
2023-09-17T07:37:28.220Z,99478.44
2023-09-17T07:39:35.111Z,99478.03
2023-09-17T07:41:36.631Z,99478.56
2023-09-17T07:43:38.358Z,99477.63
2023-09-17T07:45:39.802Z,99472.66
2023-09-17T07:47:41.769Z,99476.28
2023-09-17T07:49:43.341Z,99471.97
2023-09-17T07:51:44.806Z,99480.06
2023-09-17T07:53:46.246Z,99476.75
2023-09-17T07:55:50.461Z,99474.56
2023-09-17T07:57:52.205Z,99481.72
2023-09-17T08:00:00.413Z,99488.63
2023-09-17T08:02:03.392Z,99489.72
2023-09-17T08:04:05.142Z,99493.81
2023-09-17T08:06:06.698Z,99489.19
2023-09-17T08:08:08.304Z,99489.22
2023-09-17T08:10:10.526Z,99487.03
2023-09-17T08:12:12.043Z,99495.69
2023-09-17T08:14:15.312Z,99492.78
2023-09-17T08:16:17.401Z,99492.16
2023-09-17T08:18:19.817Z,99489.09
2023-09-17T08:20:21.539Z,99486.28
2023-09-17T08:22:23.409Z,99485.00
2023-09-17T08:24:26.241Z,99485.69
2023-09-17T08:26:30.289Z,99493.56
2023-09-17T08:28:31.814Z,99498.78
2023-09-17T08:30:33.742Z,99492.88
2023-09-17T08:32:35.216Z,99496.75
2023-09-17T08:34:37.814Z,99501.84
2023-09-17T08:36:39.303Z,99505.22
2023-09-17T08:38:41.083Z,99499.81
2023-09-17T08:40:43.454Z,99496.50
2023-09-17T08:42:46.816Z,99500.56
2023-09-17T08:44:50.598Z,99494.72
2023-09-17T08:46:53.633Z,99503.25
2023-09-17T08:48:55.257Z,99506.16
2023-09-17T08:50:59.035Z,99505.53
2023-09-17T08:53:07.209Z,99497.59
2023-09-17T08:55:11.410Z,99503.72
2023-09-17T08:57:15.247Z,99499.00
2023-09-17T08:59:38.250Z,99502.44
2023-09-17T09:01:43.207Z,99504.03
2023-09-17T09:03:46.092Z,99502.22
2023-09-17T09:05:48.877Z,99502.81
2023-09-17T09:07:52.152Z,99505.75
2023-09-17T09:09:53.820Z,99505.13
2023-09-17T09:11:55.943Z,99504.53
2023-09-17T09:13:58.349Z,99491.53
2023-09-17T09:16:01.515Z,99506.13
2023-09-17T09:18:04.154Z,99508.03
2023-09-17T09:20:13.048Z,99507.91
2023-09-17T09:22:14.486Z,99501.75
2023-09-17T09:24:17.434Z,99504.22
2023-09-17T09:26:18.874Z,99510.94
2023-09-17T09:28:20.481Z,99509.22
2023-09-17T09:30:21.931Z,99497.66
2023-09-17T09:32:24.346Z,99508.78
2023-09-17T09:34:26.701Z,99509.88
2023-09-17T09:36:35.213Z,99509.31
2023-09-17T09:38:36.875Z,99510.16
2023-09-17T09:40:39.217Z,99505.41
2023-09-17T09:42:40.922Z,99510.28
2023-09-17T09:44:42.450Z,99508.25
2023-09-17T09:46:45.259Z,99510.94
2023-09-17T09:48:48.135Z,99509.22
2023-09-17T09:52:55.431Z,99500.72
2023-09-17T09:54:56.995Z,99507.31
2023-09-17T09:56:59.886Z,99507.47
2023-09-17T09:59:02.054Z,99514.00
2023-09-17T10:01:05.450Z,99505.91
2023-09-17T10:03:07.983Z,99501.63
2023-09-17T10:05:13.811Z,99508.31
2023-09-17T10:07:16.607Z,99502.91
2023-09-17T10:09:18.223Z,99507.03
2023-09-17T10:11:20.535Z,99505.16
2023-09-17T10:13:22.112Z,99520.09
2023-09-17T10:15:23.828Z,99509.34
2023-09-17T10:17:25.267Z,99500.09
2023-09-17T10:19:28.017Z,99499.78
2023-09-17T10:21:30.469Z,99497.25
2023-09-17T10:23:34.526Z,99500.44
2023-09-17T10:25:36.686Z,99495.47
2023-09-17T10:27:38.841Z,99489.59
2023-09-17T10:29:42.008Z,99500.56
2023-09-17T10:31:43.813Z,99503.28
2023-09-17T10:33:48.642Z,99493.91
2023-09-17T10:35:52.508Z,99497.69
2023-09-17T10:37:55.559Z,99503.88
2023-09-17T10:39:57.826Z,99494.44
2023-09-17T10:42:02.898Z,99490.00
2023-09-17T10:44:06.026Z,99487.44
2023-09-17T10:46:07.965Z,99485.13
2023-09-17T10:48:10.700Z,99488.50
2023-09-17T10:50:14.271Z,99487.84
2023-09-17T10:52:16.156Z,99476.28
2023-09-17T10:54:17.605Z,99475.72
2023-09-17T10:56:20.174Z,99470.56
2023-09-17T10:58:28.430Z,99470.56
2023-09-17T11:00:34.302Z,99476.91
2023-09-17T11:02:38.100Z,99471.94
2023-09-17T11:04:40.667Z,99480.97
2023-09-17T11:06:44.230Z,99481.59
2023-09-17T11:08:46.878Z,99476.69
2023-09-17T11:10:48.642Z,99481.38
2023-09-17T11:12:50.380Z,99476.25
2023-09-17T11:14:52.647Z,99482.78
2023-09-17T11:16:54.728Z,99483.81
2023-09-17T11:19:22.709Z,99482.34
2023-09-17T11:21:24.150Z,99481.44
2023-09-17T11:23:45.307Z,99484.16
2023-09-17T11:25:46.884Z,99479.88
2023-09-17T11:27:50.229Z,99484.63
2023-09-17T11:29:51.650Z,99484.28
2023-09-17T11:31:53.120Z,99484.88
2023-09-17T11:33:56.068Z,99478.56
2023-09-17T11:36:02.349Z,99475.41
2023-09-17T11:38:03.961Z,99479.00
2023-09-17T11:40:06.488Z,99480.22
2023-09-17T11:42:09.979Z,99484.66
2023-09-17T11:44:13.322Z,99478.03
2023-09-17T11:46:16.110Z,99484.66
2023-09-17T11:48:17.771Z,99482.50
2023-09-17T11:50:20.080Z,99483.09
2023-09-17T11:52:23.827Z,99478.00
2023-09-17T11:54:31.880Z,99472.25
2023-09-17T11:56:46.714Z,99476.34
2023-09-17T11:59:04.786Z,99478.59
2023-09-17T12:01:08.689Z,99482.75
2023-09-17T12:03:12.528Z,99483.91
2023-09-17T12:05:14.687Z,99472.25
2023-09-17T12:07:16.366Z,99481.94
2023-09-17T12:09:24.582Z,99487.06
2023-09-17T12:11:26.659Z,99484.34
2023-09-17T12:13:31.657Z,99479.28
2023-09-17T12:15:33.451Z,99481.78
2023-09-17T12:17:43.791Z,99470.22
2023-09-17T12:19:50.366Z,99470.66
2023-09-17T12:21:54.751Z,99472.84
2023-09-17T12:23:58.552Z,99467.22
2023-09-17T12:26:00.052Z,99471.72
2023-09-17T12:28:01.513Z,99472.44
2023-09-17T12:30:07.141Z,99474.25
2023-09-17T12:32:11.280Z,99464.06
2023-09-17T12:34:12.789Z,99467.03
2023-09-17T12:36:14.380Z,99473.09
2023-09-17T12:38:16.015Z,99465.69
2023-09-17T12:40:17.489Z,99469.88
2023-09-17T12:42:19.260Z,99472.41
2023-09-17T12:44:20.767Z,99463.47
2023-09-17T12:46:22.436Z,99460.75
2023-09-17T12:48:24.947Z,99464.59
2023-09-17T12:50:28.905Z,99460.03
2023-09-17T12:52:30.413Z,99464.81
2023-09-17T12:54:32.195Z,99464.56
2023-09-17T12:56:34.229Z,99462.09
2023-09-17T12:58:35.976Z,99462.13
2023-09-17T13:00:37.475Z,99463.13
2023-09-17T13:02:39.351Z,99465.50
2023-09-17T13:04:42.950Z,99465.94
2023-09-17T13:06:45.313Z,99467.53
2023-09-17T13:08:49.867Z,99465.84
2023-09-17T13:10:51.480Z,99461.00
2023-09-17T13:12:52.985Z,99464.38
2023-09-17T13:14:56.681Z,99459.63
2023-09-17T13:16:59.200Z,99460.41
2023-09-17T13:19:00.999Z,99459.63
2023-09-17T13:21:02.766Z,99458.16
2023-09-17T13:23:04.475Z,99461.09
2023-09-17T13:25:07.586Z,99467.31
2023-09-17T13:27:09.825Z,99455.69
2023-09-17T13:29:11.411Z,99455.44
2023-09-17T13:31:12.904Z,99455.22
2023-09-17T13:33:15.822Z,99469.72
2023-09-17T13:35:22.877Z,99465.78
2023-09-17T13:37:25.752Z,99458.63
2023-09-17T13:39:27.243Z,99463.84
2023-09-17T13:41:31.661Z,99455.47
2023-09-17T13:43:33.115Z,99440.31
2023-09-17T13:45:34.650Z,99447.97
2023-09-17T13:47:36.094Z,99440.41
2023-09-17T13:49:38.715Z,99432.38
2023-09-17T13:51:40.221Z,99441.88
2023-09-17T13:53:41.693Z,99433.06
2023-09-17T13:55:43.424Z,99440.16
2023-09-17T13:57:44.973Z,99438.13
2023-09-17T13:59:46.407Z,99439.25
2023-09-17T14:01:48.032Z,99436.53
2023-09-17T14:03:49.540Z,99429.97
2023-09-17T14:05:50.987Z,99429.50
2023-09-17T14:07:52.440Z,99422.81
2023-09-17T14:09:53.917Z,99423.16
2023-09-17T14:11:55.327Z,99426.09
2023-09-17T14:13:56.850Z,99424.66
2023-09-17T14:15:58.370Z,99418.78
2023-09-17T14:17:59.913Z,99414.28
2023-09-17T14:20:01.481Z,99414.75
2023-09-17T14:22:03.034Z,99406.69
2023-09-17T14:24:06.043Z,99415.06
2023-09-17T14:26:07.717Z,99417.34
2023-09-17T14:28:09.650Z,99422.41
2023-09-17T14:30:22.241Z,99418.91
2023-09-17T14:32:25.841Z,99416.19
2023-09-17T14:34:27.773Z,99419.69
2023-09-17T14:36:29.222Z,99427.06
2023-09-17T14:38:30.664Z,99422.53
2023-09-17T14:40:32.101Z,99420.13
2023-09-17T14:42:33.547Z,99429.97
2023-09-17T14:44:35.125Z,99428.28
2023-09-17T14:46:39.664Z,99421.03
2023-09-17T14:48:41.415Z,99427.59
2023-09-17T14:50:42.838Z,99418.41
2023-09-17T14:52:44.283Z,99418.00
2023-09-17T14:54:46.098Z,99414.84
2023-09-17T14:56:47.587Z,99411.19
2023-09-17T14:58:49.308Z,99408.91
2023-09-17T15:00:51.326Z,99410.16
2023-09-17T15:02:53.059Z,99402.72
2023-09-17T15:04:55.107Z,99406.69
2023-09-17T15:06:57.070Z,99410.88
2023-09-17T15:08:58.738Z,99401.41
2023-09-17T15:11:00.260Z,99407.13
2023-09-17T15:13:01.696Z,99400.91
2023-09-17T15:15:03.849Z,99403.28
2023-09-17T15:17:05.531Z,99396.00
2023-09-17T15:19:07.961Z,99397.56
2023-09-17T15:21:09.422Z,99402.81
2023-09-17T15:23:10.892Z,99409.25
2023-09-17T15:25:12.387Z,99400.34
2023-09-17T15:27:13.884Z,99393.22
2023-09-17T15:29:16.290Z,99400.59
2023-09-17T15:31:19.504Z,99397.44
2023-09-17T15:33:21.184Z,99393.91
2023-09-17T15:35:25.591Z,99393.28
2023-09-17T15:37:27.088Z,99390.31
2023-09-17T15:39:28.506Z,99384.88
2023-09-17T15:41:30.423Z,99395.25
2023-09-17T15:43:36.321Z,99385.88
2023-09-17T15:45:37.794Z,99390.94
2023-09-17T15:47:41.414Z,99401.84
2023-09-17T15:49:43.037Z,99392.31
2023-09-17T15:51:44.560Z,99389.03
2023-09-17T15:53:46.085Z,99394.53
2023-09-17T15:55:47.534Z,99400.22
2023-09-17T15:57:50.228Z,99394.88
2023-09-17T15:59:51.722Z,99400.69
2023-09-17T16:01:53.470Z,99393.66
2023-09-17T16:03:55.038Z,99398.94
2023-09-17T16:05:56.893Z,99401.84
2023-09-17T16:07:58.347Z,99400.66
2023-09-17T16:09:59.812Z,99402.41
2023-09-17T16:12:01.324Z,99400.53
2023-09-17T16:14:02.806Z,99400.59
2023-09-17T16:16:04.387Z,99403.28
2023-09-17T16:18:06.369Z,99398.56
2023-09-17T16:20:09.602Z,99388.13
2023-09-17T16:22:11.082Z,99382.91
2023-09-17T16:24:12.517Z,99380.88
2023-09-17T16:26:15.006Z,99381.19
2023-09-17T16:28:17.090Z,99364.66
2023-09-17T16:30:20.274Z,99375.47
2023-09-17T16:32:21.803Z,99376.94
2023-09-17T16:34:23.304Z,99377.91
2023-09-17T16:36:24.754Z,99373.13
2023-09-17T16:38:26.452Z,99372.31
2023-09-17T16:40:28.036Z,99367.56
2023-09-17T16:42:29.680Z,99360.72
2023-09-17T16:44:31.112Z,99360.44
2023-09-17T16:46:32.524Z,99367.94
2023-09-17T16:48:33.971Z,99363.50
2023-09-17T16:50:35.505Z,99365.28
2023-09-17T16:52:37.589Z,99364.50
2023-09-17T16:54:39.117Z,99358.47
2023-09-17T16:56:43.870Z,99360.56
2023-09-17T16:58:45.289Z,99358.97
2023-09-17T17:00:49.800Z,99358.81
2023-09-17T17:02:51.265Z,99355.16
2023-09-17T17:04:55.660Z,99353.25
2023-09-17T17:06:57.483Z,99357.22
2023-09-17T17:08:58.985Z,99351.81
2023-09-17T17:11:00.556Z,99355.97
2023-09-17T17:13:02.004Z,99359.16
2023-09-17T17:15:04.276Z,99369.63
2023-09-17T17:17:05.746Z,99361.50
2023-09-17T17:19:07.215Z,99363.09
2023-09-17T17:21:08.694Z,99369.41
2023-09-17T17:23:10.145Z,99367.97
2023-09-17T17:25:11.660Z,99363.84
2023-09-17T17:27:13.172Z,99358.91
2023-09-17T17:29:14.607Z,99357.44
2023-09-17T17:31:21.744Z,99363.94
2023-09-17T17:33:23.310Z,99369.63
2023-09-17T17:35:24.799Z,99370.38
2023-09-17T17:37:26.297Z,99363.84
2023-09-17T17:39:27.752Z,99359.72
2023-09-17T17:41:29.441Z,99356.34
2023-09-17T17:43:32.794Z,99353.81
2023-09-17T17:45:35.936Z,99355.97
2023-09-17T17:47:38.109Z,99352.28
2023-09-17T17:49:39.602Z,99359.91
2023-09-17T17:51:41.029Z,99349.75
2023-09-17T17:53:42.445Z,99339.41
2023-09-17T17:55:43.973Z,99346.03
2023-09-17T17:57:45.623Z,99346.19
2023-09-17T17:59:47.114Z,99347.09
2023-09-17T18:01:48.544Z,99345.31
2023-09-17T18:03:50.130Z,99351.94
2023-09-17T18:05:54.982Z,99352.69
2023-09-17T18:07:56.460Z,99355.66
2023-09-17T18:09:57.917Z,99344.25
2023-09-17T18:12:00.955Z,99349.44
2023-09-17T18:14:02.582Z,99349.25
2023-09-17T18:16:04.048Z,99345.88
2023-09-17T18:18:05.777Z,99342.72
2023-09-17T18:20:07.635Z,99337.94
2023-09-17T18:22:09.118Z,99331.53
2023-09-17T18:24:10.558Z,99342.13
2023-09-17T18:26:12.096Z,99339.72
2023-09-17T18:28:13.596Z,99338.75
2023-09-17T18:30:15.056Z,99333.97
2023-09-17T18:32:17.965Z,99337.28
2023-09-17T18:34:19.550Z,99332.22
2023-09-17T18:36:20.970Z,99339.00
2023-09-17T18:38:22.544Z,99335.81
2023-09-17T18:40:24.323Z,99332.63
2023-09-17T18:42:25.843Z,99327.38
2023-09-17T18:44:27.768Z,99329.06
2023-09-17T18:46:31.557Z,99332.38
2023-09-17T18:48:33.053Z,99322.22
2023-09-17T18:50:34.604Z,99328.69
2023-09-17T18:52:36.703Z,99324.13
2023-09-17T18:54:40.058Z,99320.13
2023-09-17T18:56:42.403Z,99312.19
2023-09-17T18:58:43.950Z,99318.97
2023-09-17T19:00:45.684Z,99323.34
2023-09-17T19:02:47.216Z,99319.69
2023-09-17T19:04:49.605Z,99317.78
2023-09-17T19:06:51.956Z,99322.19
2023-09-17T19:08:53.808Z,99321.97
2023-09-17T19:10:55.263Z,99322.59
2023-09-17T19:12:57.717Z,99321.00
2023-09-17T19:15:00.212Z,99320.19
2023-09-17T19:17:04.821Z,99319.81
2023-09-17T19:19:07.007Z,99314.91
2023-09-17T19:21:10.743Z,99315.47
2023-09-17T19:23:15.661Z,99310.44
2023-09-17T19:25:17.176Z,99295.66
2023-09-17T19:27:18.697Z,99293.59
2023-09-17T19:29:21.080Z,99295.47
2023-09-17T19:31:22.959Z,99289.63
2023-09-17T19:33:24.458Z,99289.09
2023-09-17T19:35:26.146Z,99292.72
2023-09-17T19:37:27.610Z,99282.88
2023-09-17T19:39:29.069Z,99291.22
2023-09-17T19:41:34.654Z,99294.50
2023-09-17T19:43:36.160Z,99295.03
2023-09-17T19:45:37.654Z,99292.63
2023-09-17T19:47:39.373Z,99298.59
2023-09-17T19:49:41.988Z,99288.94
2023-09-17T19:51:43.394Z,99295.50
2023-09-17T19:53:44.840Z,99285.38
2023-09-17T19:55:47.796Z,99287.75
2023-09-17T19:57:49.606Z,99290.53
2023-09-17T19:59:51.332Z,99281.78
2023-09-17T20:01:53.013Z,99272.13
2023-09-17T20:03:56.492Z,99271.91
2023-09-17T20:05:58.052Z,99258.28
2023-09-17T20:08:00.241Z,99255.59
2023-09-17T20:10:02.903Z,99244.38
2023-09-17T20:12:04.581Z,99236.59
2023-09-17T20:14:06.036Z,99235.03
2023-09-17T20:16:07.524Z,99240.41
2023-09-17T20:18:09.760Z,99224.88
2023-09-17T20:20:11.957Z,99227.25
2023-09-17T20:22:13.461Z,99229.66
2023-09-17T20:24:15.045Z,99224.88
2023-09-17T20:26:17.804Z,99222.19
2023-09-17T20:28:19.361Z,99232.72
2023-09-17T20:30:20.850Z,99226.88
2023-09-17T20:32:22.326Z,99217.22
2023-09-17T20:34:24.263Z,99219.09
2023-09-17T20:36:26.114Z,99228.53
2023-09-17T20:38:27.546Z,99237.41
2023-09-17T20:40:29.554Z,99232.13
2023-09-17T20:42:31.124Z,99234.91
2023-09-17T20:44:32.817Z,99229.75
2023-09-17T20:46:34.242Z,99227.66
2023-09-17T20:48:35.743Z,99232.91
2023-09-17T20:50:37.176Z,99223.38
2023-09-17T20:52:39.263Z,99232.50
2023-09-17T20:54:40.728Z,99219.19
2023-09-17T20:56:43.279Z,99221.06
2023-09-17T20:58:44.776Z,99221.66
2023-09-17T21:00:46.205Z,99219.75
2023-09-17T21:02:47.851Z,99218.66
2023-09-17T21:04:50.043Z,99216.56
2023-09-17T21:06:51.514Z,99221.47
2023-09-17T21:08:53.307Z,99229.00
2023-09-17T21:10:55.102Z,99225.22
2023-09-17T21:12:58.708Z,99218.19
2023-09-17T21:15:00.426Z,99226.22
2023-09-17T21:17:01.889Z,99211.50
2023-09-17T21:19:04.114Z,99206.44
2023-09-17T21:21:05.793Z,99195.97
2023-09-17T21:23:08.744Z,99206.25
2023-09-17T21:25:10.243Z,99199.28
2023-09-17T21:27:11.896Z,99194.97
2023-09-17T21:29:13.620Z,99194.22
2023-09-17T21:31:15.659Z,99209.31
2023-09-17T21:33:17.466Z,99205.72
2023-09-17T21:35:19.253Z,99205.25
2023-09-17T21:37:20.733Z,99209.00
2023-09-17T21:39:28.484Z,99210.13
2023-09-17T21:41:30.394Z,99194.31
2023-09-17T21:43:31.917Z,99206.91
2023-09-17T21:45:33.337Z,99209.31
2023-09-17T21:47:34.833Z,99208.19
2023-09-17T21:49:36.298Z,99200.75
2023-09-17T21:51:37.795Z,99199.66
2023-09-17T21:53:39.233Z,99196.97
2023-09-17T21:55:40.822Z,99191.09
2023-09-17T21:57:44.400Z,99196.25
2023-09-17T21:59:46.956Z,99194.38
2023-09-17T22:01:48.435Z,99193.56
2023-09-17T22:03:49.943Z,99206.22
2023-09-17T22:05:51.670Z,99199.25
2023-09-17T22:07:53.141Z,99192.00
2023-09-17T22:09:55.040Z,99192.81
2023-09-17T22:11:56.562Z,99194.09
2023-09-17T22:13:58.049Z,99194.38
2023-09-17T22:15:59.557Z,99193.56
2023-09-17T22:18:00.984Z,99191.09
2023-09-17T22:20:13.400Z,99181.47
2023-09-17T22:22:15.013Z,99181.75
2023-09-17T22:24:16.637Z,99175.91
2023-09-17T22:26:18.066Z,99168.66
2023-09-17T22:28:19.507Z,99160.69
2023-09-17T22:30:21.083Z,99161.78
2023-09-17T22:32:22.583Z,99161.78
2023-09-17T22:34:24.167Z,99162.09
2023-09-17T22:36:26.063Z,99160.47
2023-09-17T22:38:27.528Z,99162.38
2023-09-17T22:40:29.094Z,99158.41
2023-09-17T22:42:34.719Z,99160.56
2023-09-17T22:44:38.847Z,99162.16
2023-09-17T22:46:41.472Z,99148.63
2023-09-17T22:48:50.987Z,99145.38
2023-09-17T22:50:55.381Z,99141.91
2023-09-17T22:52:56.909Z,99139.22
2023-09-17T22:54:58.542Z,99130.16
2023-09-17T22:57:00.030Z,99123.72
2023-09-17T22:59:01.600Z,99124.00
2023-09-17T23:01:04.117Z,99110.38
2023-09-17T23:03:05.610Z,99112.78
2023-09-17T23:05:09.333Z,99106.63
2023-09-17T23:07:10.921Z,99098.84
2023-09-17T23:09:12.425Z,99099.75
2023-09-17T23:11:14.484Z,99087.44
2023-09-17T23:13:16.028Z,99090.91
2023-09-17T23:15:18.455Z,99087.44
2023-09-17T23:17:19.937Z,99083.16
2023-09-17T23:19:24.031Z,99084.75
2023-09-17T23:21:25.510Z,99079.38
2023-09-17T23:23:26.969Z,99077.00
2023-09-17T23:25:28.474Z,99069.81
2023-09-17T23:27:31.453Z,99066.06
2023-09-17T23:29:32.895Z,99058.03
2023-09-17T23:31:37.061Z,99058.34
2023-09-17T23:33:40.676Z,99050.56
2023-09-17T23:35:42.181Z,99042.81
2023-09-17T23:37:43.577Z,99044.22
2023-09-17T23:39:45.282Z,99046.09
2023-09-17T23:41:46.697Z,99041.59
2023-09-17T23:43:48.199Z,99043.53
2023-09-17T23:45:50.170Z,99041.94
2023-09-17T23:47:51.868Z,99032.84
2023-09-17T23:49:54.402Z,99033.44
2023-09-17T23:51:55.869Z,99024.88
2023-09-17T23:53:57.342Z,99020.63
2023-09-17T23:55:59.520Z,99015.84
2023-09-17T23:58:01.278Z,99006.84
